Arch Cape, Oregon
Current Conditions -  °F | °C
As of 11:55 AM on Friday 21 Nov 2014 (Local Time) from KAST Reporting Station
Light Rain Light Rain  
Wind Chill: 53°   Ceiling: 2900
Heat Index: 53°   Visibility: 4mi
Dew Point: 50°   Wind: 8mph
Humidity: 89%   Direction: 160°SSE
Pressure: 29.55"   Gusts: NA
Location:  45.8°N, 123.96°W
Report Text: KAST 211955Z AUTO 16007KT 4SM -RA BR OVC029 12/10 A2955 RMK AO2 SLP006 P0010 T01170100
Loading
Personal Weather Stations






























Interactive Weather Map New forecast layout! Learn more

10-Day Weather Forecast

Advertisements
Track Severe Weather on mobile